createdAt,value
2022-12-15T00:02:19.463Z,19.70
2022-12-15T00:05:05.998Z,20.07
2022-12-15T00:07:51.943Z,19.13
2022-12-15T00:10:37.771Z,19.80
2022-12-15T00:13:30.457Z,19.60
2022-12-15T00:16:16.420Z,20.40
2022-12-15T00:19:02.046Z,20.93
2022-12-15T00:21:47.585Z,20.47
2022-12-15T00:24:33.153Z,22.00
2022-12-15T00:27:18.534Z,22.37
2022-12-15T00:30:04.019Z,23.00
2022-12-15T00:32:49.489Z,21.10
2022-12-15T00:35:35.043Z,21.40
2022-12-15T00:38:32.588Z,19.60
2022-12-15T00:41:00.700Z,20.47
2022-12-15T00:43:32.992Z,20.10
2022-12-15T00:46:18.746Z,18.80
2022-12-15T00:48:46.371Z,19.97
2022-12-15T00:51:14.330Z,22.20
2022-12-15T00:54:00.893Z,20.20
2022-12-15T00:56:46.359Z,18.50
2022-12-15T00:59:32.432Z,19.40
2022-12-15T01:02:18.260Z,20.50
2022-12-15T01:05:03.983Z,21.60
2022-12-15T01:07:49.543Z,20.60
2022-12-15T01:10:36.095Z,20.90
2022-12-15T01:13:23.207Z,20.63
2022-12-15T01:16:08.803Z,20.60
2022-12-15T01:18:54.507Z,20.70
2022-12-15T01:21:24.572Z,20.83
2022-12-15T01:23:51.705Z,20.87
2022-12-15T01:26:18.543Z,20.80
2022-12-15T01:28:45.403Z,19.80
2022-12-15T01:31:12.799Z,20.57
2022-12-15T01:33:40.030Z,20.23
2022-12-15T01:36:07.312Z,20.50
2022-12-15T01:38:34.130Z,19.77
2022-12-15T01:41:07.295Z,20.30
2022-12-15T01:43:36.509Z,19.63
2022-12-15T01:46:16.111Z,19.33
2022-12-15T01:48:59.712Z,20.50
2022-12-15T01:51:32.567Z,20.40
2022-12-15T01:54:05.139Z,19.77
2022-12-15T01:56:38.068Z,21.30
2022-12-15T01:59:09.127Z,18.97
2022-12-15T02:01:36.137Z,19.10
2022-12-15T02:04:03.506Z,18.97
2022-12-15T02:06:30.753Z,19.33
2022-12-15T02:08:59.620Z,18.83
2022-12-15T02:11:48.238Z,19.27
2022-12-15T02:14:31.917Z,20.07
2022-12-15T02:17:14.453Z,19.83
2022-12-15T02:19:55.497Z,19.60
2022-12-15T02:22:28.387Z,18.40
2022-12-15T02:25:04.034Z,19.17
2022-12-15T02:27:59.193Z,20.60
2022-12-15T02:30:35.059Z,19.30
2022-12-15T02:33:11.755Z,19.77
2022-12-15T02:35:56.972Z,18.60
2022-12-15T02:38:38.870Z,20.60
2022-12-15T02:41:26.991Z,18.50
2022-12-15T02:43:53.960Z,18.23
2022-12-15T02:46:35.551Z,17.97
2022-12-15T02:49:21.177Z,19.30
2022-12-15T02:52:26.355Z,18.10
2022-12-15T02:54:59.467Z,18.50
2022-12-15T02:57:53.415Z,18.50
2022-12-15T03:00:20.992Z,19.57
2022-12-15T03:02:54.323Z,18.10
2022-12-15T03:05:23.868Z,20.00
2022-12-15T03:07:53.506Z,19.87
2022-12-15T03:10:23.708Z,18.33
2022-12-15T03:12:50.696Z,18.20
2022-12-15T03:15:18.744Z,17.80
2022-12-15T03:17:45.654Z,19.80
2022-12-15T03:20:12.664Z,18.67
2022-12-15T03:22:40.257Z,18.60
2022-12-15T03:25:07.533Z,17.60
2022-12-15T03:27:35.511Z,19.17
2022-12-15T03:30:02.464Z,19.63
2022-12-15T03:32:30.109Z,20.53
2022-12-15T03:34:56.973Z,18.60
2022-12-15T03:37:23.801Z,18.83
2022-12-15T03:39:50.648Z,18.83
2022-12-15T03:42:37.467Z,18.70
2022-12-15T03:45:04.946Z,18.90
2022-12-15T03:47:32.184Z,19.23
2022-12-15T03:50:03.288Z,18.70
2022-12-15T03:52:30.137Z,19.13
2022-12-15T03:54:57.000Z,20.37
2022-12-15T03:57:23.911Z,21.73
2022-12-15T03:59:50.742Z,22.20
2022-12-15T04:02:17.757Z,20.57
2022-12-15T04:04:44.828Z,19.37
2022-12-15T04:07:11.690Z,19.00
2022-12-15T04:09:38.599Z,18.00
2022-12-15T04:12:05.608Z,19.57
2022-12-15T04:14:32.784Z,20.60
2022-12-15T04:16:59.899Z,20.90
2022-12-15T04:19:45.130Z,20.60
2022-12-15T04:22:17.641Z,21.63
2022-12-15T04:25:03.320Z,18.73
2022-12-15T04:27:48.920Z,18.47
2022-12-15T04:30:34.300Z,18.80
2022-12-15T04:33:23.170Z,18.13
2022-12-15T04:36:11.734Z,19.13
2022-12-15T04:38:57.040Z,17.97
2022-12-15T04:41:43.105Z,18.93
2022-12-15T04:44:29.947Z,18.87
2022-12-15T04:47:15.456Z,19.03
2022-12-15T04:50:00.974Z,18.67
2022-12-15T04:52:46.945Z,19.20
2022-12-15T04:55:32.452Z,18.77
2022-12-15T04:58:22.572Z,18.97
2022-12-15T05:01:08.248Z,19.00
2022-12-15T05:03:53.754Z,18.50
2022-12-15T05:06:39.456Z,18.80
2022-12-15T05:09:24.618Z,19.47
2022-12-15T05:12:10.034Z,19.27
2022-12-15T05:14:55.685Z,20.67
2022-12-15T05:17:41.883Z,20.03
2022-12-15T05:20:28.195Z,20.07
2022-12-15T05:23:15.289Z,17.93
2022-12-15T05:26:01.268Z,19.93
2022-12-15T05:28:47.268Z,19.50
2022-12-15T05:31:33.295Z,18.83
2022-12-15T05:34:05.114Z,19.30
2022-12-15T05:36:32.945Z,19.90
2022-12-15T05:38:59.773Z,20.77
2022-12-15T05:41:26.582Z,20.37
2022-12-15T05:43:53.472Z,20.43
2022-12-15T05:46:20.422Z,19.20
2022-12-15T05:48:47.375Z,21.50
2022-12-15T05:51:14.405Z,19.27
2022-12-15T05:53:42.149Z,19.63
2022-12-15T05:56:11.947Z,19.97
2022-12-15T05:58:44.847Z,19.60
2022-12-15T06:01:15.724Z,21.90
2022-12-15T06:03:42.975Z,21.57
2022-12-15T06:06:11.772Z,19.43
2022-12-15T06:08:41.149Z,20.67
2022-12-15T06:11:11.200Z,19.53
2022-12-15T06:13:38.052Z,20.50
2022-12-15T06:16:22.375Z,19.57
2022-12-15T06:18:52.770Z,20.37
2022-12-15T06:21:25.967Z,19.87
2022-12-15T06:23:53.631Z,19.93
2022-12-15T06:26:29.679Z,18.57
2022-12-15T06:28:58.560Z,20.00
2022-12-15T06:31:26.845Z,21.27
2022-12-15T06:34:01.332Z,21.93
2022-12-15T06:36:29.021Z,21.43
2022-12-15T06:38:59.576Z,21.80
2022-12-15T06:41:26.964Z,20.87
2022-12-15T06:43:57.917Z,20.50
2022-12-15T06:46:25.952Z,21.30
2022-12-15T06:48:53.316Z,22.40
2022-12-15T06:51:20.523Z,19.67
2022-12-15T06:53:51.001Z,20.40
2022-12-15T06:56:34.134Z,21.53
2022-12-15T06:59:03.374Z,20.47
2022-12-15T07:01:32.169Z,21.03
2022-12-15T07:04:01.504Z,20.63
2022-12-15T07:06:36.449Z,20.57
2022-12-15T07:09:10.833Z,20.17
2022-12-15T07:11:37.755Z,20.83
2022-12-15T07:14:05.023Z,21.50
2022-12-15T07:16:32.116Z,22.50
2022-12-15T07:18:59.077Z,23.10
2022-12-15T07:21:25.965Z,21.00
2022-12-15T07:23:55.229Z,21.63
2022-12-15T07:26:23.754Z,21.77
2022-12-15T07:28:50.756Z,22.40
2022-12-15T07:31:18.086Z,20.50
2022-12-15T07:33:45.073Z,21.47
2022-12-15T07:36:12.414Z,21.30
2022-12-15T07:38:39.242Z,20.67
2022-12-15T07:41:08.059Z,20.03
2022-12-15T07:43:36.028Z,20.70
2022-12-15T07:46:04.691Z,20.87
2022-12-15T07:48:32.445Z,21.17
2022-12-15T07:51:07.457Z,21.70
2022-12-15T07:53:36.483Z,22.70
2022-12-15T07:56:07.885Z,21.83
2022-12-15T07:58:35.788Z,22.63
2022-12-15T08:01:05.566Z,23.20
2022-12-15T08:03:33.342Z,23.60
2022-12-15T08:06:05.509Z,22.73
2022-12-15T08:08:34.161Z,22.67
2022-12-15T08:11:05.548Z,23.17
2022-12-15T08:16:21.723Z,22.77
2022-12-15T08:18:49.020Z,22.83
2022-12-15T08:21:16.165Z,21.53
2022-12-15T08:23:42.998Z,21.17
2022-12-15T08:26:15.559Z,21.23
2022-12-15T08:28:43.209Z,20.20
2022-12-15T08:31:24.333Z,19.30
2022-12-15T08:33:51.289Z,21.30
2022-12-15T08:36:20.270Z,19.90
2022-12-15T08:38:47.451Z,20.80
2022-12-15T08:41:18.535Z,19.80
2022-12-15T08:43:48.933Z,19.67
2022-12-15T08:46:21.615Z,20.57
2022-12-15T08:48:49.463Z,21.30
2022-12-15T08:51:17.417Z,20.80
2022-12-15T08:53:44.490Z,19.70
2022-12-15T08:56:15.824Z,20.30
2022-12-15T08:58:43.129Z,20.27
2022-12-15T09:01:23.294Z,21.20
2022-12-15T09:03:51.480Z,21.73
2022-12-15T09:06:21.046Z,21.60
2022-12-15T09:08:48.560Z,21.43
2022-12-15T09:11:17.223Z,22.90
2022-12-15T09:13:44.599Z,21.23
2022-12-15T09:16:14.607Z,21.80
2022-12-15T09:18:43.605Z,21.87
2022-12-15T09:21:11.541Z,23.43
2022-12-15T09:23:38.806Z,22.20
2022-12-15T09:26:15.242Z,21.27
2022-12-15T09:28:43.151Z,22.40
2022-12-15T09:31:21.924Z,22.60
2022-12-15T09:33:50.803Z,21.80
2022-12-15T09:36:17.754Z,22.83
2022-12-15T09:38:45.015Z,21.13
2022-12-15T09:41:15.047Z,21.67
2022-12-15T09:43:58.622Z,21.50
2022-12-15T09:46:50.172Z,22.67
2022-12-15T09:49:23.539Z,21.33
2022-12-15T09:52:10.352Z,21.93
2022-12-15T09:54:38.564Z,22.00
2022-12-15T09:57:12.686Z,21.13
2022-12-15T10:00:01.501Z,21.63
2022-12-15T10:03:02.568Z,22.57
2022-12-15T10:08:53.646Z,23.70
2022-12-15T10:11:42.421Z,23.27
2022-12-15T10:14:16.878Z,23.60
2022-12-15T10:17:02.466Z,22.87
2022-12-15T10:19:40.021Z,23.93
2022-12-15T10:22:12.902Z,23.50
2022-12-15T10:27:36.084Z,24.20
2022-12-15T10:30:06.539Z,24.30
2022-12-15T10:32:56.545Z,24.97
2022-12-15T10:35:29.360Z,25.00
2022-12-15T10:38:02.677Z,23.70
2022-12-15T10:40:55.049Z,23.97
2022-12-15T10:43:44.803Z,24.43
2022-12-15T10:46:15.592Z,24.20
2022-12-15T10:48:48.582Z,25.00
2022-12-15T10:51:37.102Z,25.30
2022-12-15T10:54:13.076Z,23.77
2022-12-15T10:56:54.539Z,24.93
2022-12-15T10:59:33.871Z,24.83
2022-12-15T11:02:34.411Z,26.57
2022-12-15T11:05:27.628Z,24.60
2022-12-15T11:08:15.927Z,24.33
2022-12-15T11:11:15.685Z,25.17
2022-12-15T11:14:03.459Z,24.17
2022-12-15T11:16:31.686Z,25.70
2022-12-15T11:19:31.557Z,24.83
2022-12-15T11:22:21.960Z,23.27
2022-12-15T11:24:58.370Z,23.37
2022-12-15T11:27:32.906Z,23.07
2022-12-15T11:30:14.697Z,24.63
2022-12-15T11:32:55.658Z,24.40
2022-12-15T11:35:29.947Z,25.07
2022-12-15T11:38:03.490Z,25.20
2022-12-15T11:40:44.306Z,25.60
2022-12-15T11:43:15.193Z,26.30
2022-12-15T11:46:00.772Z,26.53
2022-12-15T11:48:49.178Z,27.47
2022-12-15T11:51:58.136Z,25.00
2022-12-15T11:54:49.692Z,26.67
2022-12-15T11:57:38.774Z,26.67
2022-12-15T12:00:15.306Z,25.50
2022-12-15T12:03:13.303Z,25.83
2022-12-15T12:06:10.418Z,27.20
2022-12-15T12:09:07.470Z,26.47
2022-12-15T12:11:51.349Z,28.20
2022-12-15T12:14:44.331Z,27.53
2022-12-15T12:17:39.466Z,27.90
2022-12-15T12:20:28.453Z,27.30
2022-12-15T12:23:24.296Z,28.90
2022-12-15T12:26:16.640Z,27.23
2022-12-15T12:29:21.388Z,26.50
2022-12-15T12:32:05.413Z,26.23
2022-12-15T12:35:29.845Z,28.50
2022-12-15T12:38:09.642Z,25.60
2022-12-15T12:40:51.029Z,26.67
2022-12-15T12:43:36.855Z,27.17
2022-12-15T12:46:07.396Z,26.57
2022-12-15T12:48:48.515Z,32.10
2022-12-15T12:51:30.180Z,26.67
2022-12-15T12:53:58.896Z,25.90
2022-12-15T12:56:52.154Z,25.10
2022-12-15T12:59:31.176Z,24.27
2022-12-15T13:02:11.429Z,25.20
2022-12-15T13:04:40.438Z,24.00
2022-12-15T13:07:32.810Z,24.53
2022-12-15T13:10:08.484Z,23.30
2022-12-15T13:12:52.569Z,23.97
2022-12-15T13:15:34.860Z,23.47
2022-12-15T13:18:24.708Z,23.70
2022-12-15T13:20:56.640Z,23.53
2022-12-15T13:23:23.523Z,24.23
2022-12-15T13:25:55.868Z,23.23
2022-12-15T13:28:31.973Z,23.83
2022-12-15T13:31:27.719Z,24.33
2022-12-15T13:34:18.688Z,25.97
2022-12-15T13:36:54.223Z,23.97
2022-12-15T13:39:27.972Z,24.80
2022-12-15T13:44:57.264Z,25.70
2022-12-15T13:47:29.481Z,23.70
2022-12-15T13:50:11.745Z,23.17
2022-12-15T13:53:18.856Z,22.67
2022-12-15T13:56:00.884Z,23.30
2022-12-15T13:58:33.570Z,23.10
2022-12-15T14:01:01.082Z,23.90
2022-12-15T14:03:28.152Z,23.93
2022-12-15T14:05:58.701Z,79.47
2022-12-15T14:08:29.433Z,25.67
2022-12-15T14:10:59.238Z,23.50
2022-12-15T14:13:30.157Z,24.20
2022-12-15T14:16:03.310Z,26.30
2022-12-15T14:18:35.774Z,30.50
2022-12-15T14:21:06.660Z,26.43
2022-12-15T14:24:11.475Z,25.00
2022-12-15T14:26:32.232Z,25.43
2022-12-15T14:29:02.707Z,26.03
2022-12-15T14:31:31.054Z,25.20
2022-12-15T14:34:02.687Z,23.93
2022-12-15T14:36:31.051Z,25.50
2022-12-15T14:39:20.152Z,25.90
2022-12-15T14:41:49.179Z,25.57
2022-12-15T14:44:39.340Z,25.07
2022-12-15T14:47:18.436Z,25.47
2022-12-15T14:49:46.389Z,24.00
2022-12-15T14:52:25.936Z,26.37
2022-12-15T14:54:59.038Z,26.57
2022-12-15T14:57:43.513Z,25.50
2022-12-15T15:00:33.947Z,24.37
2022-12-15T15:03:19.926Z,25.80
2022-12-15T15:05:51.674Z,26.23
2022-12-15T15:08:29.549Z,26.00
2022-12-15T15:11:00.565Z,25.40
2022-12-15T15:13:40.040Z,27.37
2022-12-15T15:16:15.182Z,24.87
2022-12-15T15:18:43.817Z,23.97
2022-12-15T15:21:20.334Z,23.73
2022-12-15T15:24:04.847Z,25.27
2022-12-15T15:26:31.933Z,25.47
2022-12-15T15:28:59.062Z,26.60
2022-12-15T15:31:27.410Z,26.30
2022-12-15T15:33:58.561Z,26.13
2022-12-15T15:36:33.382Z,25.80
2022-12-15T15:39:01.918Z,25.03
2022-12-15T15:41:31.559Z,25.03
2022-12-15T15:44:00.791Z,25.63
2022-12-15T15:46:34.587Z,25.10
2022-12-15T15:49:05.925Z,27.57
2022-12-15T15:51:34.033Z,27.30
2022-12-15T15:54:08.211Z,26.53
2022-12-15T15:56:35.156Z,25.10
2022-12-15T15:59:17.003Z,26.70
2022-12-15T16:01:46.667Z,26.40
2022-12-15T16:04:13.657Z,24.20
2022-12-15T16:06:46.770Z,24.77
2022-12-15T16:09:16.043Z,25.53
2022-12-15T16:11:43.759Z,24.67
2022-12-15T16:14:15.768Z,24.30
2022-12-15T16:16:43.146Z,24.37
2022-12-15T16:19:12.089Z,24.70
2022-12-15T16:21:40.101Z,25.20
2022-12-15T16:24:18.730Z,27.07
2022-12-15T16:26:48.957Z,26.03
2022-12-15T16:29:18.549Z,28.47
2022-12-15T16:31:46.040Z,30.07
2022-12-15T16:34:14.225Z,36.27
2022-12-15T16:36:41.326Z,29.10
2022-12-15T16:39:23.215Z,24.87
2022-12-15T16:41:52.244Z,26.20
2022-12-15T16:44:19.082Z,26.00
2022-12-15T16:46:46.285Z,27.40
2022-12-15T16:49:13.244Z,26.63
2022-12-15T16:51:43.719Z,25.67
2022-12-15T16:54:17.877Z,25.63
2022-12-15T16:56:45.043Z,24.57
2022-12-15T16:59:36.343Z,26.87
2022-12-15T17:02:22.113Z,25.70
2022-12-15T17:04:49.320Z,25.20
2022-12-15T17:07:20.083Z,25.30
2022-12-15T17:09:50.044Z,26.80
2022-12-15T17:12:18.016Z,26.63
2022-12-15T17:14:45.607Z,25.80
2022-12-15T17:17:15.312Z,25.50
2022-12-15T17:19:57.840Z,26.10
2022-12-15T17:22:29.090Z,25.27
2022-12-15T17:24:55.982Z,24.77
2022-12-15T17:27:30.366Z,25.63
2022-12-15T17:29:59.577Z,26.43
2022-12-15T17:32:26.896Z,24.93
2022-12-15T17:34:53.783Z,24.77
2022-12-15T17:37:20.693Z,22.50
2022-12-15T17:39:51.289Z,22.83
2022-12-15T17:42:20.286Z,21.20
2022-12-15T17:44:48.320Z,22.17
2022-12-15T17:47:16.692Z,22.20
2022-12-15T17:49:43.888Z,23.73
2022-12-15T17:52:23.071Z,21.27
2022-12-15T17:54:51.535Z,21.37
2022-12-15T17:57:18.458Z,21.10
2022-12-15T17:59:45.529Z,21.20
2022-12-15T18:02:15.757Z,21.50
2022-12-15T18:04:43.673Z,21.50
2022-12-15T18:07:24.196Z,22.30
2022-12-15T18:09:52.235Z,20.23
2022-12-15T18:12:21.857Z,18.43
2022-12-15T18:14:49.030Z,19.90
2022-12-15T18:17:16.079Z,21.20
2022-12-15T18:19:43.044Z,21.30
2022-12-15T18:22:15.433Z,21.53
2022-12-15T18:24:42.381Z,20.70
2022-12-15T18:27:21.687Z,19.77
2022-12-15T18:29:48.948Z,21.57
2022-12-15T18:32:17.056Z,21.17
2022-12-15T18:34:44.190Z,20.17
2022-12-15T18:37:19.631Z,20.10
2022-12-15T18:39:48.197Z,19.73
2022-12-15T18:42:17.763Z,18.63
2022-12-15T18:44:50.061Z,17.87
2022-12-15T18:47:19.190Z,17.97
2022-12-15T18:49:46.975Z,18.83
2022-12-15T18:52:23.337Z,17.00
2022-12-15T18:54:52.203Z,16.70
2022-12-15T18:57:27.121Z,18.07
2022-12-15T18:59:57.866Z,17.97
2022-12-15T19:02:25.109Z,18.80
2022-12-15T19:04:52.017Z,17.17
2022-12-15T19:07:19.024Z,17.57
2022-12-15T19:09:45.899Z,18.97
2022-12-15T19:12:18.449Z,18.27
2022-12-15T19:14:47.926Z,18.33
2022-12-15T19:17:55.503Z,17.30
2022-12-15T19:20:40.752Z,18.17
2022-12-15T19:23:08.054Z,16.40
2022-12-15T19:25:35.400Z,17.07
2022-12-15T19:28:02.435Z,17.07
2022-12-15T19:30:37.068Z,20.33
2022-12-15T19:33:07.540Z,18.83
2022-12-15T19:35:34.469Z,17.70
2022-12-15T19:38:03.341Z,88.47
2022-12-15T19:40:32.667Z,17.43
2022-12-15T19:43:00.505Z,16.97
2022-12-15T19:45:30.482Z,16.27
2022-12-15T19:47:58.110Z,16.60
2022-12-15T19:50:37.187Z,17.23
2022-12-15T19:53:21.791Z,15.83
2022-12-15T19:55:48.765Z,16.80
2022-12-15T19:58:28.105Z,16.83
2022-12-15T20:01:00.804Z,16.90
2022-12-15T20:03:29.314Z,15.73
2022-12-15T20:05:58.626Z,16.13
2022-12-15T20:08:35.327Z,15.87
2022-12-15T20:11:02.352Z,14.83
2022-12-15T20:13:29.997Z,16.37
2022-12-15T20:15:57.090Z,15.57
2022-12-15T20:18:23.961Z,14.37
2022-12-15T20:20:51.443Z,15.50
2022-12-15T20:23:29.486Z,15.60
2022-12-15T20:25:57.224Z,14.03
2022-12-15T20:28:27.599Z,14.13
2022-12-15T20:30:56.514Z,14.63
2022-12-15T20:33:23.908Z,14.50
2022-12-15T20:35:50.883Z,15.60
2022-12-15T20:38:31.895Z,15.57
2022-12-15T20:41:00.310Z,14.20
2022-12-15T20:43:33.886Z,15.37
2022-12-15T20:46:16.311Z,14.37
2022-12-15T20:48:44.596Z,15.10
2022-12-15T20:51:31.342Z,15.87
2022-12-15T20:54:00.741Z,14.90
2022-12-15T20:56:28.143Z,14.67
2022-12-15T20:58:57.203Z,13.60
2022-12-15T21:01:31.898Z,13.80
2022-12-15T21:04:01.026Z,14.93
2022-12-15T21:06:28.812Z,13.63
2022-12-15T21:08:56.733Z,13.93
2022-12-15T21:11:26.950Z,12.80
2022-12-15T21:13:56.783Z,12.07
2022-12-15T21:16:26.271Z,12.80
2022-12-15T21:21:45.180Z,12.00
2022-12-15T21:24:30.647Z,10.60
2022-12-15T21:26:57.552Z,10.40
2022-12-15T21:29:26.353Z,9.40
2022-12-15T21:31:53.515Z,10.27
2022-12-15T21:34:20.406Z,9.77
2022-12-15T21:36:51.975Z,11.87
2022-12-15T21:39:29.794Z,11.10
2022-12-15T21:42:00.859Z,11.00
2022-12-15T21:44:27.710Z,11.67
2022-12-15T21:46:54.742Z,10.60
2022-12-15T21:49:22.186Z,11.00
2022-12-15T21:51:58.213Z,11.00
2022-12-15T21:54:33.078Z,12.30
2022-12-15T21:57:00.866Z,11.97
2022-12-15T21:59:30.483Z,11.17
2022-12-15T22:01:59.296Z,11.10
2022-12-15T22:04:34.079Z,10.57
2022-12-15T22:07:01.620Z,11.60
2022-12-15T22:09:28.746Z,10.73
2022-12-15T22:11:56.523Z,10.97
2022-12-15T22:14:33.091Z,10.90
2022-12-15T22:17:01.716Z,9.93
2022-12-15T22:19:28.625Z,10.60
2022-12-15T22:21:55.459Z,9.73
2022-12-15T22:24:22.605Z,9.60
2022-12-15T22:26:49.489Z,9.47
2022-12-15T22:29:20.010Z,9.70
2022-12-15T22:31:47.866Z,8.80
2022-12-15T22:34:26.871Z,9.97
2022-12-15T22:36:54.824Z,10.00
2022-12-15T22:39:21.912Z,10.40
2022-12-15T22:41:50.485Z,9.40
2022-12-15T22:44:26.367Z,9.03
2022-12-15T22:46:56.650Z,8.90
2022-12-15T22:49:28.704Z,9.60
2022-12-15T22:51:55.557Z,9.23
2022-12-15T22:54:25.304Z,8.97
2022-12-15T22:57:05.311Z,8.63
2022-12-15T22:59:42.506Z,9.50
2022-12-15T23:02:10.015Z,8.47
2022-12-15T23:04:37.015Z,8.97
2022-12-15T23:07:07.077Z,8.60
2022-12-15T23:09:33.937Z,9.70
2022-12-15T23:12:00.773Z,8.50
2022-12-15T23:14:46.412Z,8.20
2022-12-15T23:17:14.389Z,8.43
2022-12-15T23:19:47.551Z,8.43
2022-12-15T23:22:14.642Z,8.70
2022-12-15T23:24:41.763Z,8.30
2022-12-15T23:27:11.922Z,8.17
2022-12-15T23:29:39.259Z,7.80
2022-12-15T23:32:06.336Z,7.40
2022-12-15T23:34:33.139Z,8.83
2022-12-15T23:37:00.020Z,8.20
2022-12-15T23:39:27.104Z,7.70
2022-12-15T23:41:53.932Z,8.57
2022-12-15T23:44:21.653Z,7.60
2022-12-15T23:46:48.587Z,7.73
2022-12-15T23:49:15.444Z,7.17
2022-12-15T23:51:42.349Z,7.30
2022-12-15T23:54:09.808Z,7.80
2022-12-15T23:56:39.583Z,7.27
2022-12-15T23:59:06.975Z,7.70
